sensor_id;sensor_type;location;lat;lon;timestamp;pressure;altitude;pressure_sealevel;temperature;humidity
24858;BME280;12935;50.782;6.074;2022-11-15T00:00:47;98816.41;;;12.20;100.00
24858;BME280;12935;50.782;6.074;2022-11-15T00:03:16;98808.91;;;12.24;100.00
24858;BME280;12935;50.782;6.074;2022-11-15T00:05:43;98812.63;;;12.34;100.00
24858;BME280;12935;50.782;6.074;2022-11-15T00:08:09;98794.22;;;12.34;100.00
24858;BME280;12935;50.782;6.074;2022-11-15T00:10:35;98800.22;;;12.45;100.00
24858;BME280;12935;50.782;6.074;2022-11-15T00:13:04;98806.59;;;12.42;100.00
24858;BME280;12935;50.782;6.074;2022-11-15T00:15:30;98789.28;;;12.45;100.00
24858;BME280;12935;50.782;6.074;2022-11-15T00:17:55;98794.28;;;12.50;100.00
24858;BME280;12935;50.782;6.074;2022-11-15T00:20:20;98792.03;;;12.45;100.00
24858;BME280;12935;50.782;6.074;2022-11-15T00:22:45;98795.53;;;12.46;100.00
24858;BME280;12935;50.782;6.074;2022-11-15T00:25:11;98793.56;;;12.46;100.00
24858;BME280;12935;50.782;6.074;2022-11-15T00:27:36;98793.06;;;12.51;100.00
24858;BME280;12935;50.782;6.074;2022-11-15T00:30:01;98783.91;;;12.42;100.00
24858;BME280;12935;50.782;6.074;2022-11-15T00:32:30;98783.19;;;12.38;100.00
24858;BME280;12935;50.782;6.074;2022-11-15T00:34:56;98773.06;;;12.35;100.00
24858;BME280;12935;50.782;6.074;2022-11-15T00:37:21;98784.56;;;12.46;100.00
24858;BME280;12935;50.782;6.074;2022-11-15T00:39:46;98782.19;;;12.48;100.00
24858;BME280;12935;50.782;6.074;2022-11-15T00:42:12;98780.28;;;12.45;100.00
24858;BME280;12935;50.782;6.074;2022-11-15T00:44:37;98782.47;;;12.53;100.00
24858;BME280;12935;50.782;6.074;2022-11-15T00:47:02;98768.41;;;12.51;100.00
24858;BME280;12935;50.782;6.074;2022-11-15T00:49:27;98774.94;;;12.57;100.00
24858;BME280;12935;50.782;6.074;2022-11-15T00:51:53;98774.38;;;12.46;100.00
24858;BME280;12935;50.782;6.074;2022-11-15T00:54:18;98785.00;;;12.44;100.00
24858;BME280;12935;50.782;6.074;2022-11-15T00:56:44;98771.75;;;12.43;100.00
24858;BME280;12935;50.782;6.074;2022-11-15T00:59:09;98776.28;;;12.49;100.00
24858;BME280;12935;50.782;6.074;2022-11-15T01:01:35;98778.31;;;12.45;100.00
24858;BME280;12935;50.782;6.074;2022-11-15T01:04:00;98779.03;;;12.49;100.00
24858;BME280;12935;50.782;6.074;2022-11-15T01:06:25;98773.13;;;12.51;100.00
24858;BME280;12935;50.782;6.074;2022-11-15T01:08:51;98770.66;;;12.56;100.00
24858;BME280;12935;50.782;6.074;2022-11-15T01:11:16;98759.69;;;12.56;100.00
24858;BME280;12935;50.782;6.074;2022-11-15T01:13:41;98761.56;;;12.59;100.00
24858;BME280;12935;50.782;6.074;2022-11-15T01:16:13;98761.31;;;12.54;100.00
24858;BME280;12935;50.782;6.074;2022-11-15T01:18:40;98761.25;;;12.57;100.00
24858;BME280;12935;50.782;6.074;2022-11-15T01:21:11;98766.38;;;12.55;100.00
24858;BME280;12935;50.782;6.074;2022-11-15T01:23:37;98761.31;;;12.54;100.00
24858;BME280;12935;50.782;6.074;2022-11-15T01:26:05;98768.28;;;12.58;100.00
24858;BME280;12935;50.782;6.074;2022-11-15T01:28:32;98766.38;;;12.55;100.00
24858;BME280;12935;50.782;6.074;2022-11-15T01:30:59;98757.34;;;12.39;100.00
24858;BME280;12935;50.782;6.074;2022-11-15T01:33:25;98765.31;;;12.49;100.00
24858;BME280;12935;50.782;6.074;2022-11-15T01:35:50;98754.44;;;12.46;100.00
24858;BME280;12935;50.782;6.074;2022-11-15T01:38:15;98746.63;;;12.44;100.00
24858;BME280;12935;50.782;6.074;2022-11-15T01:40:41;98742.28;;;12.47;100.00
24858;BME280;12935;50.782;6.074;2022-11-15T01:45:50;98738.88;;;12.43;100.00
24858;BME280;12935;50.782;6.074;2022-11-15T01:48:19;98736.03;;;12.46;100.00
24858;BME280;12935;50.782;6.074;2022-11-15T01:50:45;98730.38;;;12.37;100.00
24858;BME280;12935;50.782;6.074;2022-11-15T01:53:10;98725.78;;;12.30;100.00
24858;BME280;12935;50.782;6.074;2022-11-15T01:55:36;98733.09;;;12.37;100.00
24858;BME280;12935;50.782;6.074;2022-11-15T01:58:04;98736.91;;;12.43;100.00
24858;BME280;12935;50.782;6.074;2022-11-15T02:00:30;98736.13;;;12.43;100.00
24858;BME280;12935;50.782;6.074;2022-11-15T02:02:56;98740.47;;;12.40;100.00
24858;BME280;12935;50.782;6.074;2022-11-15T02:05:21;98739.28;;;12.41;100.00
24858;BME280;12935;50.782;6.074;2022-11-15T02:07:47;98736.53;;;12.41;100.00
24858;BME280;12935;50.782;6.074;2022-11-15T02:10:18;98736.44;;;12.45;100.00
24858;BME280;12935;50.782;6.074;2022-11-15T02:12:44;98735.69;;;12.44;100.00
24858;BME280;12935;50.782;6.074;2022-11-15T02:15:10;98724.41;;;12.42;100.00
24858;BME280;12935;50.782;6.074;2022-11-15T02:20:39;98739.97;;;12.45;100.00
24858;BME280;12935;50.782;6.074;2022-11-15T02:31:39;98739.63;;;12.43;100.00
24858;BME280;12935;50.782;6.074;2022-11-15T02:34:35;98734.56;;;12.42;100.00
24858;BME280;12935;50.782;6.074;2022-11-15T02:38:02;98738.75;;;12.46;100.00
24858;BME280;12935;50.782;6.074;2022-11-15T02:40:41;98736.81;;;12.47;100.00
24858;BME280;12935;50.782;6.074;2022-11-15T02:43:12;98727.13;;;12.42;100.00
24858;BME280;12935;50.782;6.074;2022-11-15T02:46:20;98728.53;;;12.30;100.00
24858;BME280;12935;50.782;6.074;2022-11-15T02:48:47;98720.25;;;12.34;100.00
24858;BME280;12935;50.782;6.074;2022-11-15T02:51:13;98712.09;;;12.30;100.00
24858;BME280;12935;50.782;6.074;2022-11-15T02:53:38;98725.25;;;12.39;100.00
24858;BME280;12935;50.782;6.074;2022-11-15T02:56:04;98726.66;;;12.27;100.00
24858;BME280;12935;50.782;6.074;2022-11-15T03:01:38;98723.00;;;12.34;100.00
24858;BME280;12935;50.782;6.074;2022-11-15T03:06:53;98727.13;;;12.42;100.00
24858;BME280;12935;50.782;6.074;2022-11-15T03:09:37;98720.47;;;12.43;100.00
24858;BME280;12935;50.782;6.074;2022-11-15T03:12:34;98721.91;;;12.48;100.00
24858;BME280;12935;50.782;6.074;2022-11-15T03:15:07;98715.72;;;12.44;100.00
24858;BME280;12935;50.782;6.074;2022-11-15T03:17:40;98713.50;;;12.39;100.00
24858;BME280;12935;50.782;6.074;2022-11-15T03:20:08;98708.81;;;12.39;100.00
24858;BME280;12935;50.782;6.074;2022-11-15T03:22:42;98706.91;;;12.36;100.00
24858;BME280;12935;50.782;6.074;2022-11-15T03:25:11;98708.53;;;12.34;100.00
24858;BME280;12935;50.782;6.074;2022-11-15T03:27:43;98712.63;;;12.25;100.00
24858;BME280;12935;50.782;6.074;2022-11-15T03:30:13;98713.47;;;12.22;100.00
24858;BME280;12935;50.782;6.074;2022-11-15T03:32:43;98697.09;;;12.19;100.00
24858;BME280;12935;50.782;6.074;2022-11-15T03:35:12;98689.38;;;12.14;100.00
24858;BME280;12935;50.782;6.074;2022-11-15T03:37:44;98706.84;;;12.20;100.00
24858;BME280;12935;50.782;6.074;2022-11-15T03:40:11;98697.16;;;12.15;100.00
24858;BME280;12935;50.782;6.074;2022-11-15T03:42:43;98683.91;;;12.14;100.00
24858;BME280;12935;50.782;6.074;2022-11-15T03:45:22;98687.41;;;12.14;100.00
24858;BME280;12935;50.782;6.074;2022-11-15T03:47:54;98682.22;;;12.00;100.00
24858;BME280;12935;50.782;6.074;2022-11-15T03:50:24;98677.53;;;12.01;100.00
24858;BME280;12935;50.782;6.074;2022-11-15T03:52:50;98681.38;;;12.03;100.00
24858;BME280;12935;50.782;6.074;2022-11-15T03:55:18;98683.34;;;12.03;100.00
24858;BME280;12935;50.782;6.074;2022-11-15T03:57:46;98683.34;;;12.03;100.00
24858;BME280;12935;50.782;6.074;2022-11-15T04:00:12;98685.81;;;11.97;100.00
24858;BME280;12935;50.782;6.074;2022-11-15T04:02:37;98693.41;;;11.89;100.00
24858;BME280;12935;50.782;6.074;2022-11-15T04:05:03;98687.94;;;11.89;100.00
24858;BME280;12935;50.782;6.074;2022-11-15T04:07:28;98683.66;;;11.88;100.00
24858;BME280;12935;50.782;6.074;2022-11-15T04:09:53;98679.38;;;11.87;100.00
24858;BME280;12935;50.782;6.074;2022-11-15T04:12:32;98685.47;;;11.95;100.00
24858;BME280;12935;50.782;6.074;2022-11-15T04:15:02;98690.09;;;11.98;100.00
24858;BME280;12935;50.782;6.074;2022-11-15T04:17:35;98686.44;;;12.05;100.00
24858;BME280;12935;50.782;6.074;2022-11-15T04:20:01;98686.44;;;12.05;100.00
24858;BME280;12935;50.782;6.074;2022-11-15T04:22:45;98674.44;;;11.99;100.00
24858;BME280;12935;50.782;6.074;2022-11-15T04:25:29;98687.16;;;12.09;100.00
24858;BME280;12935;50.782;6.074;2022-11-15T04:27:55;98688.19;;;12.15;100.00
24858;BME280;12935;50.782;6.074;2022-11-15T04:30:20;98694.06;;;12.13;100.00
24858;BME280;12935;50.782;6.074;2022-11-15T04:32:45;98688.94;;;12.15;100.00
24858;BME280;12935;50.782;6.074;2022-11-15T04:35:11;98695.19;;;12.16;100.00
24858;BME280;12935;50.782;6.074;2022-11-15T04:37:36;98696.13;;;12.09;100.00
24858;BME280;12935;50.782;6.074;2022-11-15T04:40:02;98696.56;;;12.08;100.00
24858;BME280;12935;50.782;6.074;2022-11-15T04:42:27;98696.28;;;12.02;100.00
24858;BME280;12935;50.782;6.074;2022-11-15T04:44:53;98704.41;;;12.06;100.00
24858;BME280;12935;50.782;6.074;2022-11-15T04:47:18;98698.47;;;12.11;100.00
24858;BME280;12935;50.782;6.074;2022-11-15T04:49:44;98682.50;;;12.06;100.00
24858;BME280;12935;50.782;6.074;2022-11-15T04:52:09;98687.56;;;12.07;100.00
24858;BME280;12935;50.782;6.074;2022-11-15T04:54:34;98677.16;;;11.99;100.00
24858;BME280;12935;50.782;6.074;2022-11-15T04:57:00;98684.06;;;12.07;100.00
24858;BME280;12935;50.782;6.074;2022-11-15T04:59:25;98683.22;;;12.10;100.00
24858;BME280;12935;50.782;6.074;2022-11-15T05:01:50;98691.56;;;12.03;100.00
24858;BME280;12935;50.782;6.074;2022-11-15T05:04:15;98670.66;;;11.92;100.00
24858;BME280;12935;50.782;6.074;2022-11-15T05:06:44;98680.63;;;12.03;100.00
24858;BME280;12935;50.782;6.074;2022-11-15T05:09:10;98688.13;;;11.99;100.00
24858;BME280;12935;50.782;6.074;2022-11-15T05:11:35;98683.84;;;11.98;100.00
24858;BME280;12935;50.782;6.074;2022-11-15T05:14:00;98690.88;;;11.99;100.00
24858;BME280;12935;50.782;6.074;2022-11-15T05:16:26;98687.78;;;11.97;100.00
24858;BME280;12935;50.782;6.074;2022-11-15T05:18:53;98681.97;;;11.94;100.00
24858;BME280;12935;50.782;6.074;2022-11-15T05:21:18;98691.88;;;11.88;100.00
24858;BME280;12935;50.782;6.074;2022-11-15T05:23:44;98695.00;;;11.87;100.00
24858;BME280;12935;50.782;6.074;2022-11-15T05:26:09;98691.16;;;11.84;100.00
24858;BME280;12935;50.782;6.074;2022-11-15T05:28:35;98680.38;;;11.77;100.00
24858;BME280;12935;50.782;6.074;2022-11-15T05:31:05;98697.75;;;11.87;100.00
24858;BME280;12935;50.782;6.074;2022-11-15T05:33:31;98692.00;;;11.81;100.00
24858;BME280;12935;50.782;6.074;2022-11-15T05:36:05;98689.81;;;11.73;100.00
24858;BME280;12935;50.782;6.074;2022-11-15T05:38:31;98698.75;;;11.77;100.00
24858;BME280;12935;50.782;6.074;2022-11-15T05:40:57;98692.88;;;11.75;100.00
24858;BME280;12935;50.782;6.074;2022-11-15T05:43:23;98698.25;;;11.82;100.00
24858;BME280;12935;50.782;6.074;2022-11-15T05:45:49;98693.97;;;11.81;100.00
24858;BME280;12935;50.782;6.074;2022-11-15T05:48:14;98701.31;;;11.64;100.00
24858;BME280;12935;50.782;6.074;2022-11-15T05:50:42;98693.16;;;11.60;100.00
24858;BME280;12935;50.782;6.074;2022-11-15T05:53:10;98696.31;;;11.59;100.00
24858;BME280;12935;50.782;6.074;2022-11-15T05:55:38;98702.91;;;11.62;100.00
24858;BME280;12935;50.782;6.074;2022-11-15T05:58:05;98708.03;;;11.59;100.00
24858;BME280;12935;50.782;6.074;2022-11-15T06:00:30;98721.41;;;11.54;100.00
24858;BME280;12935;50.782;6.074;2022-11-15T06:02:55;98702.13;;;11.41;100.00
24858;BME280;12935;50.782;6.074;2022-11-15T06:05:21;98713.09;;;11.38;100.00
24858;BME280;12935;50.782;6.074;2022-11-15T06:07:46;98713.47;;;11.40;100.00
24858;BME280;12935;50.782;6.074;2022-11-15T06:10:11;98725.59;;;11.39;100.00
24858;BME280;12935;50.782;6.074;2022-11-15T06:12:36;98738.09;;;11.40;100.00
24858;BME280;12935;50.782;6.074;2022-11-15T06:15:02;98736.00;;;11.47;100.00
24858;BME280;12935;50.782;6.074;2022-11-15T06:17:28;98743.50;;;11.43;100.00
24858;BME280;12935;50.782;6.074;2022-11-15T06:19:54;98737.19;;;11.46;100.00
24858;BME280;12935;50.782;6.074;2022-11-15T06:22:19;98732.97;;;11.18;100.00
24858;BME280;12935;50.782;6.074;2022-11-15T06:24:44;98732.31;;;11.11;100.00
24858;BME280;12935;50.782;6.074;2022-11-15T06:27:11;98734.25;;;11.14;100.00
24858;BME280;12935;50.782;6.074;2022-11-15T06:29:36;98729.41;;;11.21;100.00
24858;BME280;12935;50.782;6.074;2022-11-15T06:32:01;98718.47;;;10.98;100.00
24858;BME280;12935;50.782;6.074;2022-11-15T06:34:27;98721.22;;;10.98;100.00
24858;BME280;12935;50.782;6.074;2022-11-15T06:36:52;98719.91;;;10.83;100.00
24858;BME280;12935;50.782;6.074;2022-11-15T06:39:17;98723.63;;;10.93;100.00
24858;BME280;12935;50.782;6.074;2022-11-15T06:41:43;98726.69;;;10.98;100.00
24858;BME280;12935;50.782;6.074;2022-11-15T06:44:08;98724.53;;;11.09;100.00
24858;BME280;12935;50.782;6.074;2022-11-15T06:46:34;98721.41;;;11.11;100.00
24858;BME280;12935;50.782;6.074;2022-11-15T06:48:59;98732.19;;;10.95;100.00
24858;BME280;12935;50.782;6.074;2022-11-15T06:51:24;98720.72;;;11.03;100.00
24858;BME280;12935;50.782;6.074;2022-11-15T06:53:50;98723.41;;;10.83;100.00
24858;BME280;12935;50.782;6.074;2022-11-15T06:56:15;98731.97;;;10.85;100.00
24858;BME280;12935;50.782;6.074;2022-11-15T06:58:41;98738.75;;;11.01;100.00
24858;BME280;12935;50.782;6.074;2022-11-15T07:01:09;98733.56;;;11.06;100.00
24858;BME280;12935;50.782;6.074;2022-11-15T07:03:36;98740.03;;;10.93;100.00
24858;BME280;12935;50.782;6.074;2022-11-15T07:06:02;98746.19;;;11.00;100.00
24858;BME280;12935;50.782;6.074;2022-11-15T07:08:28;98745.94;;;11.14;100.00
24858;BME280;12935;50.782;6.074;2022-11-15T07:10:54;98752.34;;;11.04;100.00
24858;BME280;12935;50.782;6.074;2022-11-15T07:13:20;98753.97;;;11.02;100.00
24858;BME280;12935;50.782;6.074;2022-11-15T07:15:48;98746.59;;;10.99;100.00
24858;BME280;12935;50.782;6.074;2022-11-15T07:18:14;98759.47;;;10.98;100.00
24858;BME280;12935;50.782;6.074;2022-11-15T07:20:39;98735.31;;;10.70;100.00
24858;BME280;12935;50.782;6.074;2022-11-15T07:23:05;98741.19;;;10.68;100.00
24858;BME280;12935;50.782;6.074;2022-11-15T07:25:30;98744.84;;;10.58;100.00
24858;BME280;12935;50.782;6.074;2022-11-15T07:27:57;98749.38;;;10.68;100.00
24858;BME280;12935;50.782;6.074;2022-11-15T07:30:24;98740.28;;;10.75;100.00
24858;BME280;12935;50.782;6.074;2022-11-15T07:35:19;98759.06;;;10.73;100.00
24858;BME280;12935;50.782;6.074;2022-11-15T07:38:01;98747.06;;;10.67;100.00
24858;BME280;12935;50.782;6.074;2022-11-15T07:40:29;98763.91;;;10.62;100.00
24858;BME280;12935;50.782;6.074;2022-11-15T07:43:02;98758.28;;;10.72;100.00
24858;BME280;12935;50.782;6.074;2022-11-15T07:45:28;98762.97;;;10.72;100.00
24858;BME280;12935;50.782;6.074;2022-11-15T07:47:53;98758.00;;;10.67;100.00
24858;BME280;12935;50.782;6.074;2022-11-15T07:50:21;98756.41;;;10.69;100.00
24858;BME280;12935;50.782;6.074;2022-11-15T07:52:46;98766.22;;;10.63;100.00
24858;BME280;12935;50.782;6.074;2022-11-15T07:55:12;98751.72;;;10.70;100.00
24858;BME280;12935;50.782;6.074;2022-11-15T07:57:37;98762.47;;;10.53;100.00
24858;BME280;12935;50.782;6.074;2022-11-15T08:00:05;98754.91;;;10.65;100.00
24858;BME280;12935;50.782;6.074;2022-11-15T08:02:31;98760.97;;;10.76;100.00
24858;BME280;12935;50.782;6.074;2022-11-15T08:04:56;98748.63;;;10.68;100.00
24858;BME280;12935;50.782;6.074;2022-11-15T08:07:21;98745.81;;;10.71;100.00
24858;BME280;12935;50.782;6.074;2022-11-15T08:09:47;98737.31;;;10.66;100.00
24858;BME280;12935;50.782;6.074;2022-11-15T08:12:12;98734.59;;;10.66;100.00
24858;BME280;12935;50.782;6.074;2022-11-15T08:14:37;98732.28;;;10.64;100.00
24858;BME280;12935;50.782;6.074;2022-11-15T08:17:03;98732.69;;;10.63;100.00
24858;BME280;12935;50.782;6.074;2022-11-15T08:19:29;98736.38;;;10.76;100.00
24858;BME280;12935;50.782;6.074;2022-11-15T08:21:54;98731.03;;;10.69;100.00
24858;BME280;12935;50.782;6.074;2022-11-15T08:24:19;98728.19;;;10.76;100.00
24858;BME280;12935;50.782;6.074;2022-11-15T08:26:45;98740.22;;;10.82;100.00
24858;BME280;12935;50.782;6.074;2022-11-15T08:29:11;98746.03;;;10.84;100.00
24858;BME280;12935;50.782;6.074;2022-11-15T08:31:36;98740.34;;;10.71;100.00
24858;BME280;12935;50.782;6.074;2022-11-15T08:34:03;98733.41;;;10.67;100.00
24858;BME280;12935;50.782;6.074;2022-11-15T08:36:29;98734.53;;;10.69;100.00
24858;BME280;12935;50.782;6.074;2022-11-15T08:38:54;98734.78;;;10.78;100.00
24858;BME280;12935;50.782;6.074;2022-11-15T08:41:25;98740.41;;;10.68;100.00
24858;BME280;12935;50.782;6.074;2022-11-15T08:43:51;98743.75;;;10.79;100.00
24858;BME280;12935;50.782;6.074;2022-11-15T08:46:17;98724.63;;;10.79;100.00
24858;BME280;12935;50.782;6.074;2022-11-15T08:48:43;98725.44;;;10.76;100.00
24858;BME280;12935;50.782;6.074;2022-11-15T08:51:08;98722.25;;;10.81;100.00
24858;BME280;12935;50.782;6.074;2022-11-15T08:53:34;98714.06;;;10.81;100.00
24858;BME280;12935;50.782;6.074;2022-11-15T08:55:59;98711.06;;;10.72;100.00
24858;BME280;12935;50.782;6.074;2022-11-15T08:58:25;98708.34;;;10.72;100.00
24858;BME280;12935;50.782;6.074;2022-11-15T09:00:50;98718.34;;;10.82;100.00
24858;BME280;12935;50.782;6.074;2022-11-15T09:03:15;98710.78;;;10.89;100.00
24858;BME280;12935;50.782;6.074;2022-11-15T09:05:40;98713.78;;;10.99;100.00
24858;BME280;12935;50.782;6.074;2022-11-15T09:08:06;98686.56;;;10.92;100.00
24858;BME280;12935;50.782;6.074;2022-11-15T09:10:31;98711.22;;;11.11;100.00
24858;BME280;12935;50.782;6.074;2022-11-15T09:12:57;98700.28;;;11.11;100.00
24858;BME280;12935;50.782;6.074;2022-11-15T09:15:23;98680.78;;;11.09;100.00
24858;BME280;12935;50.782;6.074;2022-11-15T09:17:48;98677.25;;;11.12;100.00
24858;BME280;12935;50.782;6.074;2022-11-15T09:20:14;98677.88;;;11.20;100.00
24858;BME280;12935;50.782;6.074;2022-11-15T09:22:39;98684.31;;;11.33;100.00
24858;BME280;12935;50.782;6.074;2022-11-15T09:25:05;98680.22;;;11.41;100.00
24858;BME280;12935;50.782;6.074;2022-11-15T09:27:31;98679.47;;;11.41;100.00
24858;BME280;12935;50.782;6.074;2022-11-15T09:29:56;98676.78;;;11.37;100.00
24858;BME280;12935;50.782;6.074;2022-11-15T09:32:22;98683.69;;;11.45;100.00
24858;BME280;12935;50.782;6.074;2022-11-15T09:34:50;98668.81;;;11.46;100.00
24858;BME280;12935;50.782;6.074;2022-11-15T09:37:15;98677.59;;;11.57;100.00
24858;BME280;12935;50.782;6.074;2022-11-15T09:39:41;98663.00;;;11.64;100.00
24858;BME280;12935;50.782;6.074;2022-11-15T09:47:31;98663.78;;;11.84;97.24
24858;BME280;12935;50.782;6.074;2022-11-15T09:50:06;98661.69;;;11.92;93.60
24858;BME280;12935;50.782;6.074;2022-11-15T09:52:34;98666.75;;;11.93;94.60
24858;BME280;12935;50.782;6.074;2022-11-15T09:55:01;98654.00;;;12.03;93.51
24858;BME280;12935;50.782;6.074;2022-11-15T10:00:08;98661.50;;;12.19;89.21
24858;BME280;12935;50.782;6.074;2022-11-15T10:03:10;98664.88;;;12.26;89.45
24858;BME280;12935;50.782;6.074;2022-11-15T10:05:40;98662.38;;;12.32;87.95
24858;BME280;12935;50.782;6.074;2022-11-15T10:08:26;98658.88;;;12.32;84.53
24858;BME280;12935;50.782;6.074;2022-11-15T10:11:05;98666.66;;;12.33;83.65
24858;BME280;12935;50.782;6.074;2022-11-15T10:13:34;98655.44;;;12.27;80.56
24858;BME280;12935;50.782;6.074;2022-11-15T10:21:20;98641.47;;;12.22;77.49
24858;BME280;12935;50.782;6.074;2022-11-15T10:23:47;98633.84;;;12.29;77.23
24858;BME280;12935;50.782;6.074;2022-11-15T10:26:15;98623.09;;;12.39;77.11
24858;BME280;12935;50.782;6.074;2022-11-15T10:28:42;98624.03;;;12.48;76.28
24858;BME280;12935;50.782;6.074;2022-11-15T10:31:24;98615.13;;;12.60;76.05
24858;BME280;12935;50.782;6.074;2022-11-15T10:33:50;98618.22;;;12.79;76.83
24858;BME280;12935;50.782;6.074;2022-11-15T10:36:19;98622.75;;;12.85;73.64
24858;BME280;12935;50.782;6.074;2022-11-15T10:38:52;98605.97;;;12.83;72.74
24858;BME280;12935;50.782;6.074;2022-11-15T10:46:42;98587.63;;;13.25;70.46
24858;BME280;12935;50.782;6.074;2022-11-15T10:49:16;98601.63;;;13.44;71.07
24858;BME280;12935;50.782;6.074;2022-11-15T10:54:41;98591.28;;;13.64;69.15
24858;BME280;12935;50.782;6.074;2022-11-15T10:57:12;98585.91;;;13.86;69.19
24858;BME280;12935;50.782;6.074;2022-11-15T10:59:43;98580.09;;;13.84;69.35
24858;BME280;12935;50.782;6.074;2022-11-15T11:04:54;98579.97;;;13.87;65.83
24858;BME280;12935;50.782;6.074;2022-11-15T11:07:25;98565.28;;;14.07;66.02
24858;BME280;12935;50.782;6.074;2022-11-15T11:12:30;98564.50;;;14.19;62.28
24858;BME280;12935;50.782;6.074;2022-11-15T11:14:57;98565.50;;;14.12;61.29
24858;BME280;12935;50.782;6.074;2022-11-15T11:20:23;98556.34;;;14.53;59.72
24858;BME280;12935;50.782;6.074;2022-11-15T11:22:59;98554.44;;;14.76;58.27
24858;BME280;12935;50.782;6.074;2022-11-15T11:28:17;98537.81;;;14.45;59.36
24858;BME280;12935;50.782;6.074;2022-11-15T11:36:42;98511.53;;;14.31;63.61
24858;BME280;12935;50.782;6.074;2022-11-15T11:42:23;98499.84;;;14.52;65.48
24858;BME280;12935;50.782;6.074;2022-11-15T11:46:00;98502.88;;;14.67;65.53
24858;BME280;12935;50.782;6.074;2022-11-15T11:48:14;98484.69;;;14.48;67.05
24858;BME280;12935;50.782;6.074;2022-11-15T11:50:46;98492.41;;;14.40;69.98
24858;BME280;12935;50.782;6.074;2022-11-15T11:55:51;98477.97;;;14.36;71.11
24858;BME280;12935;50.782;6.074;2022-11-15T11:58:43;98485.44;;;14.35;72.77
24858;BME280;12935;50.782;6.074;2022-11-15T12:01:25;98472.78;;;14.51;73.32
24858;BME280;12935;50.782;6.074;2022-11-15T12:04:14;98446.97;;;14.48;73.69
24858;BME280;12935;50.782;6.074;2022-11-15T12:06:48;98444.41;;;14.54;73.92
24858;BME280;12935;50.782;6.074;2022-11-15T12:09:21;98430.28;;;14.64;74.21
24858;BME280;12935;50.782;6.074;2022-11-15T12:14:43;98423.00;;;14.49;75.61
24858;BME280;12935;50.782;6.074;2022-11-15T12:17:11;98423.28;;;14.29;77.59
24858;BME280;12935;50.782;6.074;2022-11-15T12:19:38;98412.97;;;14.20;78.10
24858;BME280;12935;50.782;6.074;2022-11-15T12:22:19;98415.47;;;14.40;78.35
24858;BME280;12935;50.782;6.074;2022-11-15T12:24:57;98420.16;;;14.39;78.40
24858;BME280;12935;50.782;6.074;2022-11-15T12:27:38;98419.63;;;14.45;78.35
24858;BME280;12935;50.782;6.074;2022-11-15T12:30:13;98415.34;;;14.31;79.51
24858;BME280;12935;50.782;6.074;2022-11-15T12:32:41;98414.91;;;14.45;79.96
24858;BME280;12935;50.782;6.074;2022-11-15T12:37:55;98394.38;;;14.59;78.62
24858;BME280;12935;50.782;6.074;2022-11-15T12:40:25;98399.38;;;14.73;78.21
24858;BME280;12935;50.782;6.074;2022-11-15T12:45:39;98389.19;;;14.83;79.93
24858;BME280;12935;50.782;6.074;2022-11-15T13:06:46;98344.47;;;14.91;78.28
24858;BME280;12935;50.782;6.074;2022-11-15T13:12:08;98342.66;;;14.97;78.97
24858;BME280;12935;50.782;6.074;2022-11-15T13:17:03;98322.28;;;14.86;76.40
24858;BME280;12935;50.782;6.074;2022-11-15T13:19:35;98321.28;;;15.01;76.64
24858;BME280;12935;50.782;6.074;2022-11-15T13:22:04;98304.47;;;14.99;75.18
24858;BME280;12935;50.782;6.074;2022-11-15T13:24:48;98312.38;;;14.88;75.58
24858;BME280;12935;50.782;6.074;2022-11-15T13:27:18;98303.22;;;14.91;77.22
24858;BME280;12935;50.782;6.074;2022-11-15T13:29:44;98304.44;;;14.90;76.50
24858;BME280;12935;50.782;6.074;2022-11-15T13:32:14;98312.03;;;14.77;76.57
24858;BME280;12935;50.782;6.074;2022-11-15T13:34:45;98292.03;;;14.55;77.35
24858;BME280;12935;50.782;6.074;2022-11-15T13:39:46;98298.47;;;14.39;79.46
24858;BME280;12935;50.782;6.074;2022-11-15T13:42:17;98293.41;;;14.37;79.57
24858;BME280;12935;50.782;6.074;2022-11-15T13:45:15;98295.06;;;14.35;80.14
24858;BME280;12935;50.782;6.074;2022-11-15T13:47:41;98293.16;;;14.23;81.21
24858;BME280;12935;50.782;6.074;2022-11-15T13:50:11;98286.66;;;14.29;81.53
24858;BME280;12935;50.782;6.074;2022-11-15T13:52:38;98285.13;;;14.28;80.87
24858;BME280;12935;50.782;6.074;2022-11-15T13:55:14;98277.91;;;14.22;81.46
24858;BME280;12935;50.782;6.074;2022-11-15T13:57:46;98274.47;;;14.30;81.50
24858;BME280;12935;50.782;6.074;2022-11-15T14:00:33;98256.25;;;14.24;81.53
24858;BME280;12935;50.782;6.074;2022-11-15T14:03:32;98263.28;;;14.25;82.38
24858;BME280;12935;50.782;6.074;2022-11-15T14:08:32;98256.31;;;14.11;83.73
24858;BME280;12935;50.782;6.074;2022-11-15T14:11:19;98253.69;;;14.08;84.10
24858;BME280;12935;50.782;6.074;2022-11-15T14:19:11;98249.50;;;14.16;84.29
24858;BME280;12935;50.782;6.074;2022-11-15T14:21:36;98234.06;;;14.18;82.46
24858;BME280;12935;50.782;6.074;2022-11-15T14:26:41;98220.28;;;14.09;81.94
24858;BME280;12935;50.782;6.074;2022-11-15T14:29:29;98230.81;;;14.11;81.53
24858;BME280;12935;50.782;6.074;2022-11-15T14:32:13;98228.84;;;14.11;81.43
24858;BME280;12935;50.782;6.074;2022-11-15T14:34:39;98230.50;;;14.09;81.28
24858;BME280;12935;50.782;6.074;2022-11-15T14:37:04;98224.69;;;14.07;81.01
24858;BME280;12935;50.782;6.074;2022-11-15T14:39:30;98219.75;;;14.01;80.92
24858;BME280;12935;50.782;6.074;2022-11-15T14:41:55;98217.16;;;13.98;81.23
24858;BME280;12935;50.782;6.074;2022-11-15T14:44:20;98216.72;;;13.99;81.57
24858;BME280;12935;50.782;6.074;2022-11-15T14:46:46;98212.88;;;13.97;82.69
24858;BME280;12935;50.782;6.074;2022-11-15T14:49:13;98212.00;;;14.00;82.41
24858;BME280;12935;50.782;6.074;2022-11-15T14:51:39;98205.75;;;13.99;82.23
24858;BME280;12935;50.782;6.074;2022-11-15T14:54:04;98198.38;;;13.96;83.43